Time;durP1;ratioP1;P1;durP2;ratioP2;P2;SDS_P1;SDS_P2;PMS_P1;PMS_P2;Temp;Humidity;BMP_temperature;BMP_pressure;BME280_temperature;BME280_humidity;BME280_pressure;Samples;Min_cycle;Max_cycle;Signal;HPM_P1;HPM_P2
2023/07/01 08:00:02;;;;;;;6.20;4.10;;;;;;;25.73;53.00;99359.38;109376;1253;22644;-42
2023/07/01 08:02:42;;;;;;;4.70;4.10;;;;;;;25.83;51.85;99362.82;110484;1250;23150;-41
2023/07/01 08:05:09;;;;;;;6.30;4.70;;;;;;;25.92;52.14;99354.14;111144;1238;22531;-41
2023/07/01 08:07:36;;;;;;;4.40;3.80;;;;;;;25.95;52.38;99359.23;110159;1247;24209;-40
2023/07/01 08:10:04;;;;;;;3.70;3.40;;;;;;;25.95;50.99;99353.91;110406;1240;22531;-37
2023/07/01 08:12:30;;;;;;;8.20;3.80;;;;;;;25.90;50.91;99352.88;109968;1241;22522;-45
2023/07/01 08:14:57;;;;;;;3.40;3.10;;;;;;;25.92;50.46;99353.20;110468;1250;25316;-42
2023/07/01 08:17:24;;;;;;;4.40;4.00;;;;;;;26.05;50.35;99355.20;110235;1241;22545;-39
2023/07/01 08:19:51;;;;;;;7.00;3.20;;;;;;;26.19;49.56;99363.79;110317;1239;25458;-48
2023/07/01 08:22:18;;;;;;;7.70;3.70;;;;;;;26.34;48.43;99359.40;110077;1250;22495;-58
2023/07/01 08:24:44;;;;;;;5.60;3.60;;;;;;;26.53;48.88;99356.98;109688;1251;25687;-45
2023/07/01 08:27:11;;;;;;;7.10;3.60;;;;;;;26.73;49.44;99361.38;112773;1245;22278;-46
2023/07/01 08:29:38;;;;;;;4.20;3.70;;;;;;;26.86;48.72;99365.91;110084;1241;22522;-37
2023/07/01 08:32:05;;;;;;;7.40;3.20;;;;;;;26.84;48.43;99363.77;110322;1248;23325;-45
2023/07/01 08:34:34;;;;;;;6.30;3.50;;;;;;;26.75;48.30;99365.91;109621;1238;25413;-43
2023/07/01 08:37:01;;;;;;;4.20;3.20;;;;;;;26.69;47.64;99362.47;110466;1240;24016;-39
2023/07/01 08:39:29;;;;;;;3.70;3.20;;;;;;;26.68;46.77;99361.81;110124;1241;22491;-40
2023/07/01 08:41:57;;;;;;;3.50;3.20;;;;;;;26.69;46.50;99360.02;110525;1240;24106;-46
2023/07/01 08:44:25;;;;;;;3.50;3.20;;;;;;;26.73;46.40;99357.30;110506;1241;22571;-45
2023/07/01 08:46:54;;;;;;;3.30;2.90;;;;;;;26.87;45.82;99359.57;110094;1238;22640;-44
2023/07/01 08:49:22;;;;;;;4.30;3.50;;;;;;;26.96;45.87;99356.09;109826;1251;25318;-38
2023/07/01 08:51:57;;;;;;;3.30;3.00;;;;;;;27.02;45.84;99350.95;110512;1250;23165;-38
2023/07/01 08:54:24;;;;;;;5.00;3.50;;;;;;;27.12;46.29;99353.40;110290;1240;24363;-38
2023/07/01 08:56:50;;;;;;;4.70;2.60;;;;;;;27.24;45.98;99348.50;109988;1244;24184;-39
2023/07/01 08:59:18;;;;;;;3.80;3.40;;;;;;;27.34;46.31;99345.27;111807;1251;22483;-43
2023/07/01 09:01:45;;;;;;;3.80;3.40;;;;;;;27.36;47.32;99352.97;112705;1238;22435;-38
2023/07/01 09:04:11;;;;;;;4.80;3.80;;;;;;;27.20;47.21;99351.09;111775;1240;22488;-43
2023/07/01 09:06:38;;;;;;;3.80;3.40;;;;;;;27.16;47.28;99346.31;112514;1240;25400;-44
2023/07/01 09:09:05;;;;;;;7.50;4.00;;;;;;;27.26;46.60;99341.62;110921;1238;22517;-40
2023/07/01 09:11:32;;;;;;;5.00;3.20;;;;;;;27.43;47.22;99349.16;110531;1251;22615;-38
2023/07/01 09:13:58;;;;;;;7.50;2.90;;;;;;;27.58;45.98;99345.17;109789;1240;22523;-45
2023/07/01 09:24:58;;;;;;;4.50;3.10;;;;;;;27.83;45.41;99332.84;111379;1236;22560;-38
2023/07/01 09:36:54;;;;;;;4.40;3.20;;;;;;;27.46;45.51;99333.66;111003;1252;22531;-36
2023/07/01 09:39:34;;;;;;;4.10;3.00;;;;;;;27.47;45.50;99341.68;110375;1245;24214;-36
2023/07/01 09:45:53;;;;;;;4.90;3.30;;;;;;;27.42;44.75;99336.69;111925;1240;22526;-46
2023/07/01 09:48:23;;;;;;;5.60;2.70;;;;;;;27.51;44.31;99330.95;111984;1248;23230;-45
2023/07/01 09:50:50;;;;;;;3.50;3.20;;;;;;;27.62;43.58;99328.56;112689;1250;22250;-45
2023/07/01 09:53:24;;;;;;;5.70;2.90;;;;;;;27.71;43.73;99331.42;112022;1248;22638;-45
2023/07/01 09:55:51;;;;;;;4.10;3.20;;;;;;;27.73;44.02;99332.27;111793;1252;22501;-45
2023/07/01 09:58:18;;;;;;;3.50;3.00;;;;;;;27.59;43.92;99334.06;111850;1241;23187;-38
2023/07/01 10:00:51;;;;;;;4.20;3.10;;;;;;;27.41;44.18;99332.57;109813;1251;25928;-44
2023/07/01 10:03:19;;;;;;;3.80;2.90;;;;;;;27.30;44.42;99328.04;109607;1248;22494;-45
2023/07/01 10:05:49;;;;;;;5.70;3.30;;;;;;;27.33;45.38;99331.45;110203;1242;22512;-37
2023/07/01 10:08:16;;;;;;;4.80;3.20;;;;;;;27.44;45.86;99328.67;110581;1239;23842;-38
2023/07/01 10:10:43;;;;;;;3.80;2.70;;;;;;;27.58;44.80;99324.98;112615;1238;22487;-44
2023/07/01 10:13:10;;;;;;;2.90;2.70;;;;;;;27.67;44.14;99326.02;112298;1236;23302;-39
2023/07/01 10:15:39;;;;;;;3.50;2.50;;;;;;;27.79;43.15;99331.77;110844;1240;23141;-38
2023/07/01 10:18:21;;;;;;;4.00;3.10;;;;;;;27.90;43.20;99326.73;111369;1241;25270;-37
2023/07/01 10:24:55;;;;;;;14.30;3.10;;;;;;;27.93;41.22;99320.23;110242;1237;24737;-37
2023/07/01 10:27:44;;;;;;;2.90;2.60;;;;;;;27.93;41.24;99317.31;110964;1240;22543;-38
2023/07/01 10:30:12;;;;;;;6.20;2.50;;;;;;;28.02;41.56;99315.58;111842;1238;22390;-47
2023/07/01 10:32:39;;;;;;;2.90;2.50;;;;;;;28.17;41.73;99319.83;110606;1249;22501;-37
2023/07/01 10:35:06;;;;;;;3.00;2.70;;;;;;;28.35;41.44;99316.46;110701;1246;22507;-37
2023/07/01 10:37:34;;;;;;;3.10;2.80;;;;;;;28.55;40.58;99305.73;110987;1235;23164;-36
2023/07/01 10:40:21;;;;;;;2.90;2.60;;;;;;;28.66;40.68;99309.56;111903;1236;22523;-39
2023/07/01 10:42:47;;;;;;;4.50;3.30;;;;;;;28.72;40.90;99312.44;111422;1235;22569;-40
2023/07/01 10:45:14;;;;;;;7.60;2.50;;;;;;;28.82;40.81;99313.83;110188;1245;25325;-38
2023/07/01 10:47:46;;;;;;;3.50;2.90;;;;;;;28.84;40.67;99311.73;110591;1237;25256;-39
2023/07/01 10:50:20;;;;;;;3.30;2.40;;;;;;;28.80;40.76;99305.98;110348;1249;22502;-38
2023/07/01 10:52:59;;;;;;;4.50;2.80;;;;;;;28.77;40.97;99308.27;109985;1240;22884;-45
2023/07/01 10:55:48;;;;;;;3.30;2.80;;;;;;;28.84;39.97;99304.68;110571;1238;25274;-39
2023/07/01 10:58:21;;;;;;;4.70;2.80;;;;;;;28.80;39.82;99302.91;110240;1249;22549;-39
2023/07/01 11:00:48;;;;;;;;;;;;;;;28.71;40.18;99301.73;110133;1239;25445;-37
2023/07/01 11:03:34;;;;;;;2.60;2.20;;;;;;;28.64;40.35;99301.00;110154;1241;22497;-38
2023/07/01 11:06:06;;;;;;;4.70;3.00;;;;;;;28.78;40.30;99300.91;109989;1249;22731;-38
2023/07/01 11:08:52;;;;;;;2.70;2.50;;;;;;;28.85;39.58;99302.82;109989;1247;25326;-44
2023/07/01 11:11:23;;;;;;;3.40;2.30;;;;;;;28.92;38.10;99304.20;110325;1240;25462;-38
2023/07/01 11:14:00;;;;;;;2.90;2.40;;;;;;;29.03;36.48;99295.09;110674;1239;22537;-39
2023/07/01 11:16:28;;;;;;;2.90;2.10;;;;;;;29.23;37.27;99302.05;110148;1247;22940;-39
2023/07/01 11:18:56;;;;;;;5.80;2.50;;;;;;;29.48;37.00;99299.00;110840;1238;22516;-41
2023/07/01 11:21:24;;;;;;;3.30;2.20;;;;;;;29.68;36.27;99302.83;110320;1238;22539;-38
2023/07/01 11:24:57;;;;;;;3.10;2.00;;;;;;;29.82;35.98;99297.39;110037;1235;25465;-39
2023/07/01 11:27:23;;;;;;;2.80;2.00;;;;;;;29.90;35.36;99295.72;109748;1237;22524;-40
2023/07/01 11:29:50;;;;;;;3.40;2.10;;;;;;;29.79;35.56;99285.95;110099;1237;25464;-38
2023/07/01 11:32:17;;;;;;;4.20;1.90;;;;;;;29.77;35.91;99285.65;110302;1239;25530;-45
2023/07/01 11:34:48;;;;;;;2.10;1.90;;;;;;;29.80;35.96;99287.99;110148;1238;22505;-45
2023/07/01 11:37:23;;;;;;;3.70;1.80;;;;;;;29.85;34.77;99288.83;110313;1246;23857;-47
2023/07/01 11:39:51;;;;;;;3.10;2.10;;;;;;;29.81;34.44;99288.81;109847;1240;24235;-46
2023/07/01 11:42:18;;;;;;;3.30;2.40;;;;;;;29.71;34.85;99294.10;110417;1246;25456;-40
2023/07/01 11:44:44;;;;;;;1.90;1.70;;;;;;;29.50;34.82;99288.02;109825;1236;22647;-46
